createdAt,value
2019-03-17T00:01:23.829Z,3.38
2019-03-17T00:03:54.202Z,3.37
2019-03-17T00:06:24.660Z,3.35
2019-03-17T00:08:56.322Z,3.32
2019-03-17T00:11:28.265Z,3.22
2019-03-17T00:13:58.653Z,3.19
2019-03-17T00:16:29.150Z,3.19
2019-03-17T00:18:59.578Z,3.10
2019-03-17T00:21:30.065Z,3.13
2019-03-17T00:24:00.495Z,3.16
2019-03-17T00:26:33.676Z,3.20
2019-03-17T00:29:04.127Z,3.21
2019-03-17T00:31:34.570Z,3.22
2019-03-17T00:34:06.577Z,3.19
2019-03-17T00:36:38.957Z,3.22
2019-03-17T00:39:09.046Z,3.14
2019-03-17T00:41:43.348Z,3.12
2019-03-17T00:44:16.253Z,3.13
2019-03-17T00:46:47.744Z,3.07
2019-03-17T00:49:18.233Z,3.08
2019-03-17T00:51:48.842Z,3.15
2019-03-17T00:54:19.311Z,3.08
2019-03-17T00:56:51.348Z,3.03
2019-03-17T00:59:21.849Z,3.06
2019-03-17T01:01:52.456Z,3.12
2019-03-17T01:04:22.886Z,3.21
2019-03-17T01:06:53.346Z,3.20
2019-03-17T01:09:25.396Z,3.20
2019-03-17T01:11:55.886Z,3.29
2019-03-17T01:14:26.826Z,3.12
2019-03-17T01:16:57.279Z,3.09
2019-03-17T01:19:27.673Z,3.01
2019-03-17T01:21:58.063Z,3.08
2019-03-17T01:24:30.530Z,3.05
2019-03-17T01:27:04.021Z,3.16
2019-03-17T01:29:35.310Z,3.09
2019-03-17T01:32:05.752Z,3.03
2019-03-17T01:34:36.322Z,2.93
2019-03-17T01:37:06.785Z,2.94
2019-03-17T01:39:37.193Z,2.94
2019-03-17T01:42:09.816Z,2.92
2019-03-17T01:44:41.810Z,2.99
2019-03-17T01:47:14.921Z,3.06
2019-03-17T01:49:45.436Z,3.07
2019-03-17T01:52:15.848Z,3.14
2019-03-17T01:54:46.283Z,3.14
2019-03-17T01:57:16.839Z,3.14
2019-03-17T01:59:47.242Z,3.10
2019-03-17T02:02:17.769Z,3.10
2019-03-17T02:04:48.216Z,3.17
2019-03-17T02:07:18.595Z,3.24
2019-03-17T02:09:49.061Z,3.29
2019-03-17T02:12:19.571Z,3.20
2019-03-17T02:14:50.007Z,3.37
2019-03-17T02:17:20.407Z,3.39
2019-03-17T02:19:52.396Z,3.42
2019-03-17T02:22:22.818Z,3.45
2019-03-17T02:24:53.232Z,3.42
2019-03-17T02:27:23.672Z,3.34
2019-03-17T02:29:55.767Z,3.37
2019-03-17T02:32:27.767Z,3.35
2019-03-17T02:34:58.414Z,3.36
2019-03-17T02:37:30.866Z,3.36
2019-03-17T02:40:02.512Z,3.37
2019-03-17T02:42:33.015Z,3.38
2019-03-17T02:45:03.608Z,3.42
2019-03-17T02:47:34.786Z,3.37
2019-03-17T02:50:09.445Z,3.44
2019-03-17T02:52:39.988Z,3.43
2019-03-17T02:55:10.369Z,3.44
2019-03-17T02:57:42.954Z,3.50
2019-03-17T03:00:13.403Z,3.55
2019-03-17T03:02:43.834Z,3.59
2019-03-17T03:05:14.268Z,3.60
2019-03-17T03:07:44.707Z,3.52
2019-03-17T03:10:15.189Z,3.59
2019-03-17T03:12:45.707Z,3.61
2019-03-17T03:15:18.717Z,3.60
2019-03-17T03:17:49.151Z,3.64
2019-03-17T03:20:19.544Z,3.66
2019-03-17T03:22:49.956Z,3.72
2019-03-17T03:25:22.434Z,3.78
2019-03-17T03:27:52.521Z,3.72
2019-03-17T03:30:22.999Z,3.78
2019-03-17T03:32:56.045Z,3.79
2019-03-17T03:35:27.335Z,3.77
2019-03-17T03:37:57.722Z,3.80
2019-03-17T03:40:28.180Z,3.83
2019-03-17T03:42:58.735Z,3.85
2019-03-17T03:45:29.311Z,3.84
2019-03-17T03:48:05.030Z,3.83
2019-03-17T03:50:35.413Z,3.85
2019-03-17T03:53:05.833Z,3.81
2019-03-17T03:55:42.162Z,3.79
2019-03-17T03:58:11.397Z,3.82
2019-03-17T04:00:44.665Z,3.85
2019-03-17T04:03:15.141Z,3.87
2019-03-17T04:05:45.550Z,3.87
2019-03-17T04:08:15.972Z,3.91
2019-03-17T04:10:48.672Z,3.88
2019-03-17T04:13:19.133Z,3.84
2019-03-17T04:15:54.537Z,3.90
2019-03-17T04:18:24.680Z,3.93
2019-03-17T04:20:55.163Z,3.92
2019-03-17T04:23:25.786Z,3.96
2019-03-17T04:25:58.788Z,3.94
2019-03-17T04:28:29.232Z,3.93
2019-03-17T04:30:59.627Z,3.94
2019-03-17T04:33:30.135Z,4.02
2019-03-17T04:36:00.679Z,4.02
2019-03-17T04:38:31.123Z,4.05
2019-03-17T04:43:49.472Z,4.10
2019-03-17T04:46:25.020Z,4.23
2019-03-17T04:48:55.361Z,4.24
2019-03-17T04:51:28.505Z,4.17
2019-03-17T04:54:04.942Z,4.27
2019-03-17T04:56:39.686Z,4.33
2019-03-17T04:59:11.753Z,4.32
2019-03-17T05:01:42.998Z,4.30
2019-03-17T05:04:17.373Z,4.45
2019-03-17T05:06:52.959Z,4.48
2019-03-17T05:09:43.705Z,4.57
2019-03-17T05:15:14.989Z,4.62
2019-03-17T05:17:52.690Z,4.63
2019-03-17T05:20:25.719Z,4.64
2019-03-17T05:22:57.979Z,4.60
2019-03-17T05:25:29.953Z,4.60
2019-03-17T05:28:00.750Z,4.73
2019-03-17T05:30:32.768Z,4.83
2019-03-17T05:33:06.030Z,4.85
2019-03-17T05:35:37.622Z,4.93
2019-03-17T05:38:08.259Z,4.77
2019-03-17T05:40:38.959Z,4.98
2019-03-17T05:43:09.470Z,5.05
2019-03-17T05:45:41.676Z,5.09
2019-03-17T05:48:12.815Z,5.05
2019-03-17T05:50:54.916Z,4.94
2019-03-17T05:53:29.855Z,4.75
2019-03-17T05:56:06.594Z,5.00
2019-03-17T05:58:55.591Z,5.31
2019-03-17T06:01:29.778Z,5.27
2019-03-17T06:04:00.349Z,5.07
2019-03-17T06:06:32.382Z,5.61
2019-03-17T06:09:06.094Z,5.86
2019-03-17T06:11:36.535Z,6.01
2019-03-17T06:14:12.838Z,6.12
2019-03-17T06:16:45.173Z,6.40
2019-03-17T06:19:15.698Z,6.23
2019-03-17T06:21:49.001Z,5.83
2019-03-17T06:24:19.577Z,6.05
2019-03-17T06:26:51.585Z,6.14
2019-03-17T06:29:25.020Z,6.28
2019-03-17T06:31:55.465Z,6.04
2019-03-17T06:34:29.338Z,6.09
2019-03-17T06:37:01.627Z,6.23
2019-03-17T06:39:34.709Z,6.19
2019-03-17T06:42:07.612Z,6.09
2019-03-17T06:44:38.082Z,5.80
2019-03-17T06:47:10.364Z,5.83
2019-03-17T06:49:47.128Z,5.80
2019-03-17T06:52:17.565Z,6.07
2019-03-17T06:54:48.185Z,6.37
2019-03-17T06:57:20.643Z,6.38
2019-03-17T06:59:53.154Z,6.14
2019-03-17T07:02:23.835Z,6.23
2019-03-17T07:04:55.992Z,6.08
2019-03-17T07:07:28.284Z,6.31
2019-03-17T07:09:59.871Z,6.20
2019-03-17T07:12:38.037Z,6.53
2019-03-17T07:15:13.431Z,6.54
2019-03-17T14:34:33.764Z,6.63
2019-03-17T14:37:06.833Z,6.52
2019-03-17T14:39:41.376Z,6.59
2019-03-17T14:42:16.490Z,6.56
2019-03-17T14:44:50.459Z,6.34
2019-03-17T14:47:22.335Z,6.29
2019-03-17T14:49:56.331Z,6.18
2019-03-17T14:52:35.020Z,6.12
2019-03-17T14:55:06.873Z,6.12
2019-03-17T14:57:37.365Z,6.14
2019-03-17T15:00:22.881Z,6.09
2019-03-17T15:02:56.510Z,6.06
2019-03-17T15:05:32.759Z,6.07
2019-03-17T15:08:15.220Z,6.13
2019-03-17T15:11:04.936Z,6.08
2019-03-17T15:13:29.036Z,6.07
2019-03-17T15:16:05.258Z,6.05
2019-03-17T15:18:36.459Z,6.07
2019-03-17T15:21:08.586Z,6.10
2019-03-17T15:23:40.740Z,5.99
2019-03-17T15:26:14.734Z,5.99
2019-03-17T15:28:45.721Z,5.95
2019-03-17T15:31:22.895Z,5.94
2019-03-17T15:33:56.865Z,5.96
2019-03-17T15:36:32.006Z,5.93
2019-03-17T15:39:08.605Z,5.93
2019-03-17T15:41:41.353Z,5.90
2019-03-17T15:44:25.923Z,5.99
2019-03-17T15:46:58.473Z,6.04
2019-03-17T15:49:34.208Z,6.02
2019-03-17T15:52:04.801Z,6.05
2019-03-17T15:54:37.427Z,6.01
2019-03-17T15:57:11.012Z,6.05
2019-03-17T15:59:41.725Z,6.03
2019-03-17T16:02:16.184Z,5.97
2019-03-17T16:04:55.251Z,6.01
2019-03-17T16:07:54.748Z,5.99
2019-03-17T16:10:20.197Z,5.96
2019-03-17T16:12:50.822Z,5.96
2019-03-17T16:15:24.137Z,5.92
2019-03-17T16:18:01.827Z,5.92
2019-03-17T16:20:35.103Z,5.94
2019-03-17T16:23:05.725Z,5.90
2019-03-17T16:25:41.280Z,5.91
2019-03-17T16:28:14.120Z,5.88
2019-03-17T16:30:50.967Z,5.81
2019-03-17T16:36:24.309Z,5.84
2019-03-17T16:42:19.848Z,5.70
2019-03-17T16:48:13.826Z,5.63
2019-03-17T16:53:51.037Z,5.61
2019-03-17T18:16:07.433Z,4.36
2019-03-17T18:18:43.255Z,4.11
2019-03-17T18:24:56.668Z,4.11
2019-03-17T18:27:32.150Z,3.93
2019-03-17T18:33:47.108Z,3.92
2019-03-17T18:39:14.459Z,3.84
2019-03-17T18:42:03.027Z,3.94
2019-03-17T18:44:42.209Z,3.76
2019-03-17T18:47:26.380Z,3.72
2019-03-17T18:50:19.470Z,3.72
2019-03-17T18:52:57.648Z,3.69
2019-03-17T18:58:48.699Z,3.79
2019-03-17T19:01:36.034Z,3.75
2019-03-17T19:04:26.582Z,3.60
2019-03-17T19:07:09.558Z,3.73
2019-03-17T19:09:56.161Z,3.63
2019-03-17T19:12:29.251Z,3.57
2019-03-17T19:15:18.115Z,3.49
2019-03-17T19:17:54.920Z,3.40
2019-03-17T19:20:47.461Z,3.41
2019-03-17T21:00:46.110Z,2.93
2019-03-17T21:03:30.951Z,3.08
2019-03-17T21:13:09.300Z,2.72
2019-03-17T21:25:46.174Z,2.62
2019-03-17T21:31:35.316Z,2.67
2019-03-17T21:34:33.581Z,2.78
2019-03-17T21:43:24.325Z,2.48
2019-03-17T21:46:13.823Z,2.31
2019-03-17T21:59:11.202Z,1.92
2019-03-17T22:02:14.180Z,1.84
2019-03-17T22:08:19.165Z,1.93
2019-03-17T22:14:18.899Z,1.60
2019-03-17T22:16:56.060Z,1.52
2019-03-17T22:19:47.556Z,1.68
2019-03-17T22:22:20.672Z,1.60
2019-03-17T22:24:54.264Z,1.63
2019-03-17T22:27:33.472Z,1.63
2019-03-17T22:36:06.145Z,1.96
2019-03-17T22:38:42.256Z,1.82
2019-03-17T22:41:16.825Z,1.93
2019-03-17T22:43:49.172Z,1.78
2019-03-17T22:46:26.323Z,1.83
2019-03-17T22:48:58.809Z,1.80
2019-03-17T22:51:31.102Z,1.61
2019-03-17T22:54:01.594Z,1.62
2019-03-17T22:56:32.260Z,1.46
2019-03-17T22:59:02.986Z,1.36
2019-03-17T23:01:35.236Z,1.17
2019-03-17T23:04:07.606Z,1.09
2019-03-17T23:06:38.179Z,1.33
2019-03-17T23:09:08.835Z,1.55
2019-03-17T23:11:39.465Z,1.60
2019-03-17T23:14:17.838Z,1.58
2019-03-17T23:19:39.323Z,1.65
2019-03-17T23:22:10.986Z,1.75
2019-03-17T23:24:42.548Z,1.67
2019-03-17T23:27:13.233Z,1.75
2019-03-17T23:29:45.076Z,1.71
2019-03-17T23:32:22.327Z,1.66
2019-03-17T23:34:57.208Z,1.65
2019-03-17T23:37:44.173Z,1.71
2019-03-17T23:40:15.959Z,1.81
2019-03-17T23:42:48.733Z,1.80
2019-03-17T23:45:19.956Z,1.54
2019-03-17T23:47:50.515Z,1.36
2019-03-17T23:50:24.590Z,1.58
2019-03-17T23:52:56.665Z,1.60
2019-03-17T23:55:27.192Z,1.75
2019-03-17T23:57:57.755Z,1.83
